Time;durP1;ratioP1;P1;durP2;ratioP2;P2;SDS_P1;SDS_P2;PMS_P1;PMS_P2;Temp;Humidity;BMP_temperature;BMP_pressure;BME280_temperature;BME280_humidity;BME280_pressure;Samples;Min_cycle;Max_cycle;Signal;HPM_P1;HPM_P2
2022/04/10 00:02:15;;;;;;;2.67;2.47;;;3.50;99.90;;;;;;5091965;28;20486;-81
2022/04/10 00:05:00;;;;;;;3.27;2.63;;;3.20;99.90;;;;;;5086760;28;20389;-81
2022/04/10 00:07:44;;;;;;;3.20;2.90;;;3.30;99.90;;;;;;5067464;28;20748;-81
2022/04/10 00:10:29;;;;;;;2.73;2.53;;;3.20;99.90;;;;;;5083156;28;20765;-81
2022/04/10 00:13:13;;;;;;;2.80;2.60;;;3.30;99.90;;;;;;5086998;28;20389;-78
2022/04/10 00:15:58;;;;;;;3.00;2.70;;;3.10;99.90;;;;;;5097606;28;20421;-78
2022/04/10 00:18:43;;;;;;;2.70;2.30;;;3.20;99.90;;;;;;5098030;28;20384;-79
2022/04/10 00:21:29;;;;;;;2.93;2.70;;;3.30;99.90;;;;;;5079018;28;20378;-82
2022/04/10 00:24:13;;;;;;;3.50;3.20;;;3.20;99.90;;;;;;5082179;28;20393;-81
2022/04/10 00:26:58;;;;;;;4.60;3.27;;;3.10;99.90;;;;;;5082525;28;20456;-81
2022/04/10 00:29:44;;;;;;;2.27;2.07;;;3.00;99.90;;;;;;5093621;28;20440;-80
2022/04/10 00:32:29;;;;;;;4.40;2.27;;;3.00;99.90;;;;;;5096857;28;20405;-81
2022/04/10 00:35:14;;;;;;;4.30;3.50;;;2.70;99.90;;;;;;5093704;28;20392;-81
2022/04/10 00:37:59;;;;;;;4.20;3.50;;;2.80;99.90;;;;;;5094154;28;20385;-81
2022/04/10 00:40:44;;;;;;;3.37;2.97;;;2.80;99.90;;;;;;5087621;28;20389;-81
2022/04/10 00:43:32;;;;;;;3.77;2.60;;;2.80;99.90;;;;;;5066877;28;20900;-81
2022/04/10 00:46:16;;;;;;;4.07;1.90;;;2.80;99.90;;;;;;5082205;28;20389;-81
2022/04/10 00:49:02;;;;;;;18.93;3.60;;;2.80;99.90;;;;;;5081861;28;20385;-81
2022/04/10 00:51:47;;;;;;;2.50;2.30;;;2.80;99.90;;;;;;5081680;28;20407;-81
2022/04/10 00:54:31;;;;;;;5.73;4.47;;;2.90;99.90;;;;;;5082247;28;20377;-81
2022/04/10 00:57:16;;;;;;;10.53;4.80;;;3.00;99.90;;;;;;5081143;28;20405;-81
2022/04/10 01:00:00;;;;;;;2.40;2.20;;;2.90;99.90;;;;;;5081063;28;20432;-80
2022/04/10 01:02:45;;;;;;;5.03;4.20;;;2.80;99.90;;;;;;5081024;28;20408;-80
2022/04/10 01:05:29;;;;;;;5.50;3.00;;;2.90;99.90;;;;;;5081206;28;20385;-82
2022/04/10 01:08:15;;;;;;;11.13;4.00;;;3.00;99.90;;;;;;5065860;28;20460;-81
2022/04/10 01:11:00;;;;;;;3.53;2.50;;;3.10;99.90;;;;;;5080938;28;20926;-81
2022/04/10 01:13:44;;;;;;;3.10;2.73;;;3.00;99.90;;;;;;5080834;28;20381;-82
2022/04/10 01:16:30;;;;;;;2.93;2.63;;;2.80;99.90;;;;;;5080616;28;20396;-80
2022/04/10 01:19:17;;;;;;;5.17;3.70;;;2.80;99.90;;;;;;5065313;28;20381;-81
2022/04/10 01:22:04;;;;;;;11.03;4.07;;;2.80;99.90;;;;;;5081084;28;20425;-81
2022/04/10 01:24:49;;;;;;;6.03;2.70;;;2.70;99.90;;;;;;5065919;28;20365;-81
2022/04/10 01:27:36;;;;;;;4.60;3.50;;;2.80;99.90;;;;;;5080541;28;20381;-82
2022/04/10 01:30:20;;;;;;;2.90;2.37;;;2.70;99.90;;;;;;5080536;28;20566;-81
2022/04/10 01:33:05;;;;;;;3.10;2.73;;;2.50;99.90;;;;;;5081093;28;20757;-80
2022/04/10 01:35:51;;;;;;;4.50;3.93;;;2.50;99.90;;;;;;5081284;28;20404;-81
2022/04/10 01:38:37;;;;;;;7.40;6.10;;;2.50;99.90;;;;;;5080475;28;20435;-81
2022/04/10 01:41:25;;;;;;;21.53;11.40;;;2.40;99.90;;;;;;5080166;28;20412;-81
2022/04/10 01:44:09;;;;;;;9.37;3.90;;;2.30;99.90;;;;;;5060841;28;20918;-80
2022/04/10 01:46:54;;;;;;;6.30;4.37;;;2.50;99.90;;;;;;5084972;28;20393;-81
2022/04/10 01:49:38;;;;;;;5.77;3.80;;;2.40;99.90;;;;;;5084467;28;20444;-80
2022/04/10 01:52:23;;;;;;;4.03;3.40;;;2.20;99.90;;;;;;5084424;28;20389;-80
2022/04/10 01:55:08;;;;;;;4.13;3.10;;;2.30;99.90;;;;;;5084960;28;20414;-82
2022/04/10 01:57:53;;;;;;;7.63;3.83;;;2.30;99.90;;;;;;5069269;28;20435;-81
2022/04/10 02:00:37;;;;;;;6.23;3.27;;;2.40;99.90;;;;;;5085175;28;20393;-79
2022/04/10 02:03:21;;;;;;;3.80;3.57;;;2.30;99.90;;;;;;5084054;28;20947;-81
2022/04/10 02:06:09;;;;;;;3.50;3.20;;;2.40;99.90;;;;;;5084424;28;20401;-81
2022/04/10 02:08:54;;;;;;;2.93;2.60;;;2.40;99.90;;;;;;5083756;28;20407;-80
2022/04/10 02:11:38;;;;;;;10.20;2.60;;;2.40;99.90;;;;;;5084151;28;20426;-80
2022/04/10 02:14:23;;;;;;;3.00;2.70;;;2.30;99.90;;;;;;5084408;28;20822;-81
2022/04/10 02:17:07;;;;;;;3.87;3.53;;;2.40;99.90;;;;;;5084097;28;20356;-80
2022/04/10 02:19:51;;;;;;;4.13;3.13;;;2.20;99.90;;;;;;5068063;28;20442;-81
2022/04/10 02:22:36;;;;;;;4.63;3.13;;;2.20;99.90;;;;;;5084267;28;20565;-81
2022/04/10 02:25:20;;;;;;;3.63;3.13;;;2.20;99.90;;;;;;5084411;28;20942;-81
2022/04/10 02:28:05;;;;;;;12.70;4.00;;;2.20;99.90;;;;;;5084282;28;20385;-79
2022/04/10 02:30:51;;;;;;;3.13;2.83;;;2.20;99.90;;;;;;5083513;28;20448;-81
2022/04/10 02:33:37;;;;;;;2.63;2.23;;;2.20;99.90;;;;;;5084775;28;20700;-81
2022/04/10 02:36:22;;;;;;;17.10;4.00;;;2.20;99.90;;;;;;5069422;28;20380;-79
2022/04/10 02:39:07;;;;;;;3.53;3.20;;;2.20;99.90;;;;;;5086471;28;20389;-79
2022/04/10 02:41:51;;;;;;;4.33;3.13;;;2.00;99.90;;;;;;5084786;28;20445;-82
2022/04/10 02:44:36;;;;;;;3.87;3.57;;;1.90;99.90;;;;;;5084486;28;20375;-82
2022/04/10 02:47:20;;;;;;;3.70;3.40;;;1.90;99.90;;;;;;5084228;28;20406;-81
2022/04/10 02:50:05;;;;;;;3.50;2.93;;;1.90;99.90;;;;;;5086270;28;20531;-79
2022/04/10 02:52:51;;;;;;;7.83;4.33;;;1.90;99.90;;;;;;5099516;28;20363;-80
2022/04/10 02:55:36;;;;;;;2.97;2.77;;;1.90;99.90;;;;;;5082695;28;20466;-80
2022/04/10 02:58:21;;;;;;;3.00;2.80;;;2.10;99.90;;;;;;5098464;28;20364;-81
2022/04/10 03:01:07;;;;;;;3.13;2.90;;;2.20;99.90;;;;;;5098157;28;20378;-82
2022/04/10 03:03:53;;;;;;;8.70;3.97;;;2.30;99.90;;;;;;5071322;28;20363;-81
2022/04/10 03:06:37;;;;;;;3.70;3.37;;;2.40;99.90;;;;;;5087440;28;20385;-80
2022/04/10 03:09:22;;;;;;;2.83;2.63;;;2.30;99.90;;;;;;5094044;28;20509;-79
2022/04/10 03:12:08;;;;;;;3.03;2.83;;;2.60;99.90;;;;;;5071085;28;20538;-81
2022/04/10 03:14:52;;;;;;;8.57;3.60;;;2.80;99.90;;;;;;5098097;28;20441;-80
2022/04/10 03:17:37;;;;;;;7.73;4.13;;;3.00;99.90;;;;;;5083719;28;20348;-78
2022/04/10 03:20:21;;;;;;;3.47;3.17;;;3.10;99.90;;;;;;5088605;28;20397;-80
2022/04/10 03:23:08;;;;;;;6.30;4.47;;;3.20;99.90;;;;;;5081056;28;20441;-80
2022/04/10 03:25:53;;;;;;;6.13;4.30;;;3.30;99.90;;;;;;5095940;28;20766;-81
2022/04/10 03:28:37;;;;;;;4.93;4.33;;;3.60;99.90;;;;;;5071473;28;20389;-80
2022/04/10 03:31:23;;;;;;;3.97;3.67;;;3.60;99.90;;;;;;5070465;28;20460;-80
2022/04/10 03:34:07;;;;;;;4.83;3.80;;;3.70;99.90;;;;;;5088923;28;20795;-82
2022/04/10 03:36:52;;;;;;;2.87;2.63;;;3.80;99.90;;;;;;5089831;28;20412;-80
2022/04/10 03:39:36;;;;;;;6.93;4.43;;;3.70;99.90;;;;;;5079201;28;20958;-80
2022/04/10 03:42:21;;;;;;;5.93;4.23;;;3.70;99.90;;;;;;5082184;28;20400;-81
2022/04/10 03:45:08;;;;;;;3.50;2.40;;;3.60;99.90;;;;;;5050307;28;20424;-80
2022/04/10 03:47:52;;;;;;;3.93;3.50;;;3.70;99.90;;;;;;5095739;28;20450;-79
2022/04/10 03:50:37;;;;;;;4.30;3.77;;;3.70;99.90;;;;;;5094936;28;20444;-80
2022/04/10 03:53:21;;;;;;;4.70;4.37;;;3.80;99.90;;;;;;5094436;28;20393;-81
2022/04/10 03:56:06;;;;;;;2.37;2.27;;;3.70;99.90;;;;;;5083123;28;20420;-81
2022/04/10 03:58:50;;;;;;;3.60;3.30;;;3.80;99.90;;;;;;5083633;28;20463;-82
2022/04/10 04:01:35;;;;;;;3.33;3.03;;;3.90;99.90;;;;;;5084706;28;20392;-81
2022/04/10 04:04:21;;;;;;;5.37;3.97;;;3.90;99.90;;;;;;5082500;28;20385;-81
2022/04/10 04:07:05;;;;;;;5.80;3.40;;;3.90;99.90;;;;;;5065817;28;20356;-81
2022/04/10 04:09:49;;;;;;;3.17;2.80;;;4.00;99.90;;;;;;5066685;28;20466;-81
2022/04/10 04:12:34;;;;;;;3.80;3.33;;;4.00;99.90;;;;;;5082020;28;20915;-81
2022/04/10 04:15:19;;;;;;;3.33;3.03;;;3.80;99.90;;;;;;5081214;28;20742;-79
2022/04/10 04:18:04;;;;;;;3.13;2.83;;;3.70;99.90;;;;;;5082172;28;20389;-81
2022/04/10 04:20:48;;;;;;;4.00;3.50;;;3.20;99.90;;;;;;5081834;28;20396;-81
2022/04/10 04:23:32;;;;;;;2.87;2.67;;;2.50;99.90;;;;;;5067068;28;20416;-79
2022/04/10 04:26:17;;;;;;;4.20;2.70;;;2.20;99.90;;;;;;5066835;28;20428;-82
2022/04/10 04:29:00;;;;;;;3.77;3.47;;;2.10;99.90;;;;;;5081520;28;20383;-81
2022/04/10 04:31:45;;;;;;;2.97;2.70;;;1.90;99.90;;;;;;5081106;28;20428;-82
2022/04/10 04:34:30;;;;;;;6.30;3.60;;;1.80;99.90;;;;;;5065914;28;20373;-80
2022/04/10 04:37:15;;;;;;;4.00;2.43;;;1.70;99.90;;;;;;5051716;28;20490;-80
2022/04/10 04:39:59;;;;;;;4.90;3.10;;;1.70;99.90;;;;;;5081446;28;20431;-81
2022/04/10 04:42:43;;;;;;;4.13;3.30;;;1.70;99.90;;;;;;5081634;28;20858;-80
2022/04/10 04:45:28;;;;;;;5.20;4.53;;;1.70;99.90;;;;;;5080973;28;20408;-81
2022/04/10 04:48:13;;;;;;;2.73;2.53;;;1.70;99.90;;;;;;5081222;28;20352;-81
2022/04/10 04:51:00;;;;;;;5.77;5.30;;;1.60;99.90;;;;;;5081300;28;20465;-79
2022/04/10 04:53:44;;;;;;;6.03;3.93;;;1.60;99.90;;;;;;5081525;28;20477;-81
2022/04/10 04:56:30;;;;;;;3.37;3.10;;;1.60;99.90;;;;;;5081269;28;20463;-81
2022/04/10 04:59:14;;;;;;;2.60;2.40;;;1.70;99.90;;;;;;5066512;28;20396;-80
2022/04/10 05:01:59;;;;;;;5.70;4.30;;;1.90;99.90;;;;;;5081721;28;20372;-82
2022/04/10 05:04:43;;;;;;;4.47;4.17;;;2.10;99.90;;;;;;5080700;28;20412;-81
2022/04/10 05:07:27;;;;;;;4.77;4.03;;;2.30;99.90;;;;;;5081332;28;20428;-81
2022/04/10 05:10:12;;;;;;;6.47;3.60;;;2.50;99.90;;;;;;5081182;28;20444;-80
2022/04/10 05:12:56;;;;;;;6.40;3.70;;;2.60;99.90;;;;;;5081955;28;20416;-82
2022/04/10 05:15:41;;;;;;;4.13;3.57;;;2.60;99.90;;;;;;5081743;28;20493;-81
2022/04/10 05:18:26;;;;;;;3.70;3.17;;;2.60;99.90;;;;;;5044792;28;20422;-81
2022/04/10 05:21:10;;;;;;;5.90;4.00;;;2.50;99.90;;;;;;5078523;28;20351;-81
2022/04/10 05:23:56;;;;;;;6.00;3.27;;;2.70;99.90;;;;;;5094863;28;20392;-81
2022/04/10 05:26:42;;;;;;;4.93;4.43;;;3.00;99.90;;;;;;5081711;28;20366;-80
2022/04/10 05:29:26;;;;;;;4.67;3.60;;;3.40;99.90;;;;;;5081329;28;20884;-81
2022/04/10 05:32:11;;;;;;;7.40;4.10;;;3.60;99.90;;;;;;5082019;28;20475;-80
2022/04/10 05:34:56;;;;;;;4.20;3.80;;;3.80;99.90;;;;;;5091618;28;20396;-78
2022/04/10 05:37:41;;;;;;;18.73;3.60;;;4.00;99.90;;;;;;5096472;28;20462;-76
2022/04/10 05:40:25;;;;;;;5.43;3.47;;;4.10;99.90;;;;;;5096399;28;20385;-81
2022/04/10 05:43:10;;;;;;;14.07;3.97;;;4.30;99.90;;;;;;5092593;28;20428;-80
2022/04/10 05:45:54;;;;;;;4.10;3.70;;;4.50;99.90;;;;;;5092383;28;20381;-81
2022/04/10 05:48:39;;;;;;;9.30;5.10;;;4.60;99.90;;;;;;5092784;28;20443;-81
2022/04/10 05:51:24;;;;;;;6.80;3.17;;;4.60;99.90;;;;;;5093160;28;20490;-79
2022/04/10 05:54:08;;;;;;;4.40;2.80;;;4.70;99.90;;;;;;5094397;28;20450;-80
2022/04/10 05:56:55;;;;;;;3.60;3.30;;;4.80;99.90;;;;;;5094925;28;20376;-80
2022/04/10 05:59:41;;;;;;;2.00;1.90;;;4.90;99.90;;;;;;5089627;28;20466;-81
2022/04/10 06:02:26;;;;;;;9.70;2.50;;;4.90;99.90;;;;;;5070523;28;20416;-81
2022/04/10 06:05:10;;;;;;;5.07;4.00;;;5.00;99.90;;;;;;5085665;28;20400;-81
2022/04/10 06:07:55;;;;;;;8.30;3.07;;;5.10;99.90;;;;;;5084036;28;20381;-78
2022/04/10 06:10:39;;;;;;;7.10;3.10;;;5.10;99.90;;;;;;5089287;28;20423;-81
2022/04/10 06:13:25;;;;;;;3.30;2.47;;;5.10;99.90;;;;;;5081654;28;20389;-81
2022/04/10 06:16:10;;;;;;;4.53;2.60;;;5.20;99.90;;;;;;5086660;28;20420;-77
2022/04/10 06:18:56;;;;;;;4.80;3.47;;;5.20;99.90;;;;;;5085514;28;20860;-77
2022/04/10 06:21:40;;;;;;;9.53;2.53;;;5.10;99.90;;;;;;5079221;28;20404;-77
2022/04/10 06:24:24;;;;;;;3.20;2.13;;;5.00;99.90;;;;;;5094492;28;20400;-78
2022/04/10 06:27:09;;;;;;;5.37;2.73;;;5.10;99.90;;;;;;5088176;28;20417;-80
2022/04/10 06:29:53;;;;;;;5.27;3.40;;;5.20;99.90;;;;;;5083696;28;20436;-79
2022/04/10 06:32:38;;;;;;;2.47;2.27;;;5.30;99.90;;;;;;5085231;28;20417;-79
2022/04/10 06:35:22;;;;;;;7.03;2.53;;;5.30;99.90;;;;;;5084781;28;20377;-81
2022/04/10 06:38:07;;;;;;;5.53;2.80;;;4.90;99.90;;;;;;5084139;28;20443;-81
2022/04/10 06:40:52;;;;;;;4.17;3.77;;;5.10;99.90;;;;;;5084576;28;20897;-80
2022/04/10 06:43:36;;;;;;;3.77;2.50;;;5.40;99.90;;;;;;5076823;28;20393;-78
2022/04/10 06:46:21;;;;;;;3.37;3.17;;;5.40;99.90;;;;;;5094670;28;20384;-81
2022/04/10 06:49:05;;;;;;;6.90;2.60;;;5.50;99.90;;;;;;5083759;28;20396;-82
2022/04/10 06:51:50;;;;;;;2.30;2.00;;;5.70;99.90;;;;;;5069027;28;20730;-81
2022/04/10 06:54:34;;;;;;;4.63;3.80;;;5.70;99.90;;;;;;5069003;28;20385;-81
2022/04/10 06:57:19;;;;;;;3.77;3.00;;;5.90;99.90;;;;;;5068759;28;20421;-81
2022/04/10 07:00:05;;;;;;;5.60;1.87;;;6.10;99.90;;;;;;5084045;28;20408;-81
2022/04/10 07:02:49;;;;;;;4.37;3.00;;;5.90;99.90;;;;;;5084018;28;20381;-81
2022/04/10 07:05:35;;;;;;;2.93;2.00;;;6.00;99.90;;;;;;5083541;28;20385;-81
2022/04/10 07:08:20;;;;;;;3.23;2.13;;;6.20;99.90;;;;;;5069036;28;20427;-81
2022/04/10 07:11:05;;;;;;;4.63;2.60;;;6.30;99.90;;;;;;5083747;28;20475;-81
2022/04/10 07:13:49;;;;;;;6.73;3.60;;;6.20;99.90;;;;;;5070772;28;20447;-80
2022/04/10 07:16:34;;;;;;;4.93;2.90;;;6.30;99.90;;;;;;5070060;28;20392;-80
2022/04/10 07:19:19;;;;;;;3.40;2.37;;;6.40;99.90;;;;;;5068120;28;20873;-81
2022/04/10 07:24:58;;;;;;;6.97;2.73;;;6.40;99.90;;;;;;5083299;28;20757;-82
2022/04/10 07:27:42;;;;;;;3.57;3.07;;;6.60;99.90;;;;;;5083075;28;20397;-81
2022/04/10 07:30:27;;;;;;;4.60;2.57;;;6.70;99.90;;;;;;5083413;28;20548;-80
2022/04/10 07:33:12;;;;;;;3.43;3.03;;;6.90;99.90;;;;;;5095663;28;20393;-81
2022/04/10 07:35:56;;;;;;;4.67;3.40;;;6.90;99.90;;;;;;5082079;28;20381;-80
2022/04/10 07:38:41;;;;;;;5.73;4.40;;;6.90;99.90;;;;;;5095743;28;20384;-80
2022/04/10 07:41:26;;;;;;;5.47;2.00;;;6.90;99.90;;;;;;5082192;28;20417;-80
2022/04/10 07:44:10;;;;;;;3.33;2.07;;;6.90;99.90;;;;;;5082701;28;20416;-81
2022/04/10 07:49:50;;;;;;;9.77;2.40;;;7.10;99.90;;;;;;5082913;28;20999;-81
2022/04/10 07:52:35;;;;;;;7.50;3.37;;;7.20;99.90;;;;;;5083011;28;20742;-81
2022/04/10 07:55:19;;;;;;;4.60;2.70;;;7.10;99.90;;;;;;5055703;28;20437;-80
2022/04/10 07:58:04;;;;;;;2.70;2.50;;;7.00;99.90;;;;;;5097473;28;20413;-77
2022/04/10 08:00:48;;;;;;;4.63;4.20;;;7.10;99.90;;;;;;5097476;28;20408;-78
2022/04/10 08:03:33;;;;;;;4.30;2.90;;;7.20;99.90;;;;;;5082831;28;20412;-78
2022/04/10 08:06:19;;;;;;;4.53;2.63;;;7.40;99.90;;;;;;5095665;28;20396;-80
2022/04/10 08:09:03;;;;;;;5.73;2.60;;;7.40;99.90;;;;;;5081972;28;20389;-81
2022/04/10 08:11:48;;;;;;;6.87;3.03;;;7.50;99.90;;;;;;5082083;28;20460;-81
2022/04/10 08:14:32;;;;;;;4.50;2.27;;;7.60;99.90;;;;;;5081987;28;20530;-81
2022/04/10 08:17:17;;;;;;;4.53;2.53;;;7.70;99.90;;;;;;5066187;28;20403;-82
2022/04/10 08:20:04;;;;;;;5.57;2.67;;;7.70;99.90;;;;;;5081667;28;20431;-80
2022/04/10 08:22:50;;;;;;;3.03;2.10;;;7.90;99.90;;;;;;5081173;28;20396;-81
2022/04/10 08:25:35;;;;;;;4.33;2.30;;;7.80;99.90;;;;;;5066275;28;20413;-81
2022/04/10 08:28:19;;;;;;;2.97;2.67;;;7.70;99.90;;;;;;5081478;28;20451;-80
2022/04/10 08:31:04;;;;;;;3.87;3.00;;;7.90;99.90;;;;;;5082129;28;20455;-82
2022/04/10 08:33:51;;;;;;;4.83;3.30;;;8.00;99.90;;;;;;5091500;28;20389;-79
2022/04/10 08:36:36;;;;;;;2.37;2.17;;;8.10;99.90;;;;;;5082474;28;20457;-81
2022/04/10 08:39:21;;;;;;;2.80;2.57;;;8.20;99.90;;;;;;5039800;28;20412;-79
2022/04/10 08:42:08;;;;;;;7.23;2.77;;;8.30;99.90;;;;;;5095458;28;20397;-78
2022/04/10 08:44:56;;;;;;;2.53;2.33;;;8.40;99.90;;;;;;5094575;28;20374;-78
2022/04/10 08:47:42;;;;;;;9.73;2.50;;;8.60;99.90;;;;;;5072997;28;20397;-80
2022/04/10 08:50:27;;;;;;;8.53;2.80;;;8.50;99.90;;;;;;5090022;28;20444;-79
2022/04/10 08:53:13;;;;;;;9.00;2.97;;;8.60;99.90;;;;;;5088862;28;20853;-81
2022/04/10 08:55:57;;;;;;;3.70;2.40;;;8.70;99.90;;;;;;5072946;28;20448;-80
2022/04/10 08:58:42;;;;;;;4.70;2.63;;;8.90;99.90;;;;;;5086956;28;20373;-80
2022/04/10 09:01:27;;;;;;;9.63;2.90;;;9.00;99.90;;;;;;5087968;28;20474;-79
2022/04/10 09:04:13;;;;;;;4.73;2.53;;;8.10;99.90;;;;;;5089646;28;20385;-82
2022/04/10 09:07:02;;;;;;;6.67;3.10;;;8.30;99.90;;;;;;5088715;28;20393;-82
2022/04/10 09:09:56;;;;;;;6.37;3.20;;;8.70;99.90;;;;;;5089787;28;20468;-81
2022/04/10 09:12:45;;;;;;;5.60;2.80;;;8.60;99.90;;;;;;5059458;28;20617;-81
2022/04/10 09:15:32;;;;;;;4.17;3.17;;;8.70;99.90;;;;;;5089994;28;20380;-81
2022/04/10 09:18:16;;;;;;;9.43;5.13;;;8.90;99.90;;;;;;5089901;28;20424;-81
2022/04/10 09:21:08;;;;;;;3.97;3.03;;;8.90;99.90;;;;;;5075568;28;20389;-81
2022/04/10 09:23:55;;;;;;;2.70;2.20;;;8.80;99.90;;;;;;5090239;28;20443;-82
2022/04/10 09:26:50;;;;;;;5.17;2.53;;;8.70;99.90;;;;;;5089478;28;20388;-80
2022/04/10 09:29:50;;;;;;;2.70;2.20;;;8.60;99.90;;;;;;5061763;28;20513;-81
2022/04/10 09:32:54;;;;;;;7.17;2.43;;;9.10;99.90;;;;;;5058758;28;20483;-81
2022/04/10 09:35:43;;;;;;;4.23;1.90;;;9.40;99.90;;;;;;5081064;28;20456;-79
2022/04/10 09:38:30;;;;;;;3.23;1.83;;;9.40;99.90;;;;;;5080296;28;20380;-81
2022/04/10 09:41:19;;;;;;;2.07;1.50;;;9.30;99.90;;;;;;5065617;28;20445;-82
2022/04/10 09:44:19;;;;;;;1.90;1.70;;;9.30;99.90;;;;;;5064519;28;20573;-81
2022/04/10 09:47:07;;;;;;;2.23;2.03;;;9.40;99.90;;;;;;5080032;28;20734;-81
2022/04/10 09:49:53;;;;;;;2.60;1.50;;;9.40;99.90;;;;;;5075185;28;20436;-78
2022/04/10 09:52:38;;;;;;;2.70;1.77;;;9.50;99.90;;;;;;5066924;28;20405;-81
2022/04/10 09:55:33;;;;;;;5.03;1.73;;;9.70;99.90;;;;;;5079736;28;20451;-81
2022/04/10 09:58:20;;;;;;;1.90;1.80;;;10.10;99.90;;;;;;5080131;28;20450;-81
2022/04/10 10:01:06;;;;;;;5.47;2.00;;;10.20;99.90;;;;;;5080466;28;20404;-81
2022/04/10 10:03:51;;;;;;;4.43;2.80;;;10.10;99.90;;;;;;5080513;28;20391;-82
2022/04/10 10:06:37;;;;;;;3.90;2.37;;;10.50;99.90;;;;;;5069069;28;20893;-80
2022/04/10 10:09:21;;;;;;;3.10;2.00;;;10.50;99.90;;;;;;5083591;28;20826;-81
2022/04/10 10:12:08;;;;;;;2.60;2.10;;;10.90;99.90;;;;;;5083731;28;20456;-80
2022/04/10 10:14:53;;;;;;;6.00;3.10;;;11.30;99.90;;;;;;5084170;28;20518;-80
2022/04/10 10:17:40;;;;;;;3.33;2.30;;;11.40;98.30;;;;;;5069296;28;20396;-82
2022/04/10 10:20:24;;;;;;;1.70;1.60;;;11.10;98.00;;;;;;5054225;28;20427;-82
2022/04/10 10:23:11;;;;;;;3.40;1.77;;;10.80;97.30;;;;;;5082769;28;20401;-81
2022/04/10 10:26:18;;;;;;;3.97;1.90;;;10.70;99.20;;;;;;5083801;28;20535;-81
2022/04/10 10:29:36;;;;;;;4.83;1.63;;;10.70;99.90;;;;;;5056798;28;20480;-81
2022/04/10 10:32:41;;;;;;;3.00;1.60;;;11.00;98.40;;;;;;5073447;28;20427;-81
2022/04/10 10:35:33;;;;;;;5.53;2.50;;;10.70;96.40;;;;;;5083352;28;20416;-79
2022/04/10 10:38:26;;;;;;;3.97;2.43;;;10.20;97.70;;;;;;5067623;28;20901;-80
2022/04/10 10:41:32;;;;;;;2.70;1.60;;;10.70;93.90;;;;;;5068524;28;20896;-82
2022/04/10 10:44:41;;;;;;;1.93;1.83;;;11.10;92.20;;;;;;5071526;28;20373;-79
2022/04/10 10:47:34;;;;;;;1.50;1.40;;;11.20;94.40;;;;;;5083743;28;20407;-79
2022/04/10 10:50:27;;;;;;;2.60;1.67;;;11.10;94.40;;;;;;5083372;28;20474;-81
2022/04/10 10:53:13;;;;;;;1.83;1.73;;;11.00;94.30;;;;;;5083396;28;20436;-82
2022/04/10 10:55:59;;;;;;;4.30;1.90;;;10.80;93.10;;;;;;5083032;28;20420;-81
2022/04/10 10:58:44;;;;;;;2.80;1.73;;;10.80;97.10;;;;;;5082625;28;20424;-79
2022/04/10 11:01:30;;;;;;;3.97;2.43;;;10.60;93.60;;;;;;5083418;28;20393;-82
2022/04/10 11:04:20;;;;;;;3.20;2.57;;;10.10;95.30;;;;;;5081834;28;20420;-81
2022/04/10 11:07:14;;;;;;;3.20;1.60;;;10.10;98.10;;;;;;5083192;28;20388;-82
2022/04/10 11:10:01;;;;;;;7.07;1.93;;;10.50;98.00;;;;;;5068143;28;20463;-81
2022/04/10 11:12:48;;;;;;;9.60;2.33;;;11.10;94.90;;;;;;5082611;28;20518;-82
2022/04/10 11:15:44;;;;;;;2.00;1.87;;;12.10;90.90;;;;;;5052747;28;20392;-81
2022/04/10 11:18:30;;;;;;;3.20;1.83;;;12.90;84.30;;;;;;5083753;28;20507;-79
2022/04/10 11:21:20;;;;;;;2.60;2.20;;;12.60;79.80;;;;;;5083360;28;20405;-81
2022/04/10 11:24:09;;;;;;;1.73;1.47;;;12.00;81.80;;;;;;5026800;28;20572;-81
2022/04/10 11:26:53;;;;;;;2.70;1.80;;;11.50;86.60;;;;;;5044206;28;20411;-80
2022/04/10 11:29:50;;;;;;;1.57;1.47;;;11.50;90.10;;;;;;5040979;28;20454;-80
2022/04/10 11:32:53;;;;;;;26.27;4.00;;;11.40;86.00;;;;;;5040346;28;20390;-82
2022/04/10 11:35:40;;;;;;;3.40;2.83;;;11.20;86.80;;;;;;5060776;28;20417;-82
2022/04/10 11:38:25;;;;;;;6.57;1.63;;;11.10;87.20;;;;;;5061325;28;20397;-82
2022/04/10 11:41:11;;;;;;;1.77;1.60;;;11.00;87.80;;;;;;5060940;28;20437;-81
2022/04/10 11:43:55;;;;;;;3.30;1.50;;;10.90;90.70;;;;;;5061639;28;20456;-81
2022/04/10 11:46:41;;;;;;;3.57;2.30;;;11.70;88.50;;;;;;5062918;28;20425;-82
2022/04/10 11:49:25;;;;;;;1.87;1.70;;;13.10;84.70;;;;;;5068775;28;20562;-78
2022/04/10 11:52:10;;;;;;;2.00;1.80;;;13.90;77.00;;;;;;5066987;28;20970;-80
2022/04/10 11:54:54;;;;;;;4.87;2.20;;;14.30;74.80;;;;;;5048656;28;20552;-82
2022/04/10 11:57:39;;;;;;;2.30;1.53;;;14.10;68.70;;;;;;5046768;28;20385;-79
2022/04/10 12:00:24;;;;;;;7.00;1.93;;;13.00;76.40;;;;;;5063533;28;20417;-82
2022/04/10 12:03:08;;;;;;;2.87;1.70;;;13.70;74.40;;;;;;5067577;28;20393;-81
2022/04/10 12:05:54;;;;;;;2.00;1.80;;;14.70;71.40;;;;;;5082592;28;20421;-80
2022/04/10 12:08:39;;;;;;;2.03;1.50;;;15.70;67.80;;;;;;5082404;28;20393;-83
2022/04/10 12:11:24;;;;;;;3.87;2.33;;;16.00;62.80;;;;;;5081313;28;20951;-82
2022/04/10 12:14:24;;;;;;;2.70;1.77;;;16.10;62.60;;;;;;5052685;28;20392;-81
2022/04/10 12:17:11;;;;;;;4.40;3.03;;;15.50;57.80;;;;;;5082455;28;20451;-83
2022/04/10 12:19:57;;;;;;;2.97;1.93;;;15.00;59.30;;;;;;5082145;28;20389;-81
2022/04/10 12:22:42;;;;;;;3.33;1.67;;;14.50;61.10;;;;;;5082378;28;20408;-82
2022/04/10 12:25:28;;;;;;;5.17;1.90;;;13.30;59.90;;;;;;5082142;28;20459;-81
2022/04/10 12:28:13;;;;;;;2.67;1.60;;;13.00;63.50;;;;;;5081334;28;20484;-82
2022/04/10 12:31:02;;;;;;;1.70;1.60;;;12.30;65.50;;;;;;5082138;28;20444;-82
2022/04/10 12:33:47;;;;;;;1.90;1.80;;;12.50;70.00;;;;;;5083156;28;20455;-82
2022/04/10 12:36:32;;;;;;;2.23;1.53;;;12.70;69.30;;;;;;5053306;28;20432;-82
2022/04/10 12:39:30;;;;;;;2.10;1.60;;;13.80;64.80;;;;;;5083551;28;20490;-83
2022/04/10 12:42:20;;;;;;;2.23;1.83;;;14.80;60.20;;;;;;5084655;28;20393;-83
2022/04/10 12:45:08;;;;;;;2.23;1.50;;;15.70;60.10;;;;;;5085434;28;20747;-81
2022/04/10 12:47:52;;;;;;;2.07;1.70;;;15.00;59.50;;;;;;5085376;28;20408;-82
2022/04/10 12:50:37;;;;;;;2.23;2.07;;;15.20;63.90;;;;;;5084898;28;20444;-81
2022/04/10 12:53:21;;;;;;;2.47;1.70;;;15.80;63.50;;;;;;5071052;28;20384;-80
2022/04/10 12:56:20;;;;;;;3.93;1.70;;;16.70;59.20;;;;;;5093768;28;20427;-83
2022/04/10 12:59:04;;;;;;;2.60;2.23;;;16.40;57.20;;;;;;5080625;28;20437;-81
2022/04/10 13:01:52;;;;;;;3.10;1.87;;;15.30;58.20;;;;;;5081471;28;20424;-80
2022/04/10 13:04:37;;;;;;;3.47;1.80;;;14.90;59.10;;;;;;5097198;28;20413;-79
2022/04/10 13:07:21;;;;;;;6.10;1.97;;;15.20;59.00;;;;;;5096474;28;20404;-82
2022/04/10 13:10:07;;;;;;;4.30;1.80;;;16.70;59.00;;;;;;5067051;28;20471;-79
2022/04/10 13:13:03;;;;;;;3.17;1.93;;;17.90;55.50;;;;;;5095935;28;20439;-79
2022/04/10 13:15:48;;;;;;;4.13;2.57;;;17.00;54.50;;;;;;5081771;28;20408;-81
2022/04/10 13:18:33;;;;;;;1.60;1.50;;;15.90;56.00;;;;;;5064300;28;20727;-82
2022/04/10 13:21:18;;;;;;;3.93;2.10;;;16.60;57.00;;;;;;5082508;28;20385;-79
2022/04/10 13:24:05;;;;;;;5.00;2.07;;;16.10;56.20;;;;;;5066669;28;20389;-81
2022/04/10 13:26:50;;;;;;;2.30;1.73;;;15.00;56.50;;;;;;5081413;28;20388;-80
2022/04/10 13:29:35;;;;;;;5.73;1.60;;;14.20;58.10;;;;;;5094258;28;20393;-80
2022/04/10 13:32:20;;;;;;;3.17;1.87;;;13.80;58.60;;;;;;5065705;28;20376;-81
2022/04/10 13:35:08;;;;;;;1.73;1.63;;;13.50;58.20;;;;;;5080624;28;20446;-82
2022/04/10 13:37:52;;;;;;;3.03;1.90;;;13.60;59.70;;;;;;5081087;28;20392;-81
2022/04/10 13:40:37;;;;;;;2.87;1.63;;;14.60;59.30;;;;;;5080004;28;20385;-81
2022/04/10 13:43:21;;;;;;;3.77;1.70;;;15.20;57.40;;;;;;5080623;28;20393;-82
2022/04/10 13:46:06;;;;;;;1.67;1.53;;;15.80;56.90;;;;;;5080492;28;20905;-81
2022/04/10 13:48:51;;;;;;;3.03;1.93;;;15.10;57.60;;;;;;5080334;28;20423;-82
2022/04/10 13:51:35;;;;;;;5.10;2.13;;;13.60;57.10;;;;;;5050957;28;20436;-82
2022/04/10 13:54:20;;;;;;;3.67;1.60;;;13.30;60.90;;;;;;5065062;28;20405;-82
2022/04/10 13:57:04;;;;;;;2.00;1.90;;;13.60;60.50;;;;;;5080719;28;20389;-81
2022/04/10 13:59:49;;;;;;;1.80;1.67;;;13.60;59.50;;;;;;5065048;28;20436;-81
2022/04/10 14:02:34;;;;;;;1.73;1.63;;;13.20;60.10;;;;;;5080334;28;20560;-81
2022/04/10 14:05:19;;;;;;;3.00;1.70;;;12.60;61.10;;;;;;5065406;28;20431;-82
2022/04/10 14:08:04;;;;;;;7.23;2.33;;;12.60;62.30;;;;;;5065059;28;20441;-80
2022/04/10 14:10:48;;;;;;;1.93;1.83;;;12.20;64.10;;;;;;5065192;28;20971;-81
2022/04/10 14:13:34;;;;;;;3.00;1.63;;;12.00;65.70;;;;;;5079648;28;20405;-81
2022/04/10 14:16:19;;;;;;;3.83;1.90;;;11.70;68.80;;;;;;5071360;28;20397;-78
2022/04/10 14:19:04;;;;;;;2.30;1.80;;;11.50;69.20;;;;;;5047005;28;20396;-78
2022/04/10 14:21:48;;;;;;;5.17;1.77;;;11.40;72.70;;;;;;5088995;28;20793;-81
2022/04/10 14:24:33;;;;;;;2.50;1.73;;;11.30;73.50;;;;;;5087575;28;20485;-81
2022/04/10 14:27:18;;;;;;;3.50;2.20;;;11.20;74.30;;;;;;5059628;28;20392;-82
2022/04/10 14:30:02;;;;;;;5.80;2.57;;;11.60;75.70;;;;;;5079140;28;20458;-82
2022/04/10 14:32:47;;;;;;;4.63;2.80;;;12.70;78.80;;;;;;5078688;28;20409;-83
2022/04/10 14:35:31;;;;;;;4.20;2.23;;;13.80;70.70;;;;;;5093789;28;20386;-82
2022/04/10 14:38:16;;;;;;;3.67;2.67;;;14.80;67.00;;;;;;5093395;28;20473;-79